sensor_id;sensor_type;location;lat;lon;timestamp;P1;durP1;ratioP1;P2;durP2;ratioP2
37051;SDS011;22964;52.272;13.356;2024-01-30T00:01:49;6.72;;;3.45;;
37051;SDS011;22964;52.272;13.356;2024-01-30T00:04:15;7.72;;;3.47;;
37051;SDS011;22964;52.272;13.356;2024-01-30T00:06:42;7.72;;;3.60;;
37051;SDS011;22964;52.272;13.356;2024-01-30T00:09:08;6.57;;;3.60;;
37051;SDS011;22964;52.272;13.356;2024-01-30T00:11:35;8.00;;;3.60;;
37051;SDS011;22964;52.272;13.356;2024-01-30T00:14:01;7.32;;;3.47;;
37051;SDS011;22964;52.272;13.356;2024-01-30T00:16:28;6.57;;;3.70;;
37051;SDS011;22964;52.272;13.356;2024-01-30T00:18:54;6.30;;;3.47;;
37051;SDS011;22964;52.272;13.356;2024-01-30T00:21:20;7.13;;;3.60;;
37051;SDS011;22964;52.272;13.356;2024-01-30T00:23:45;6.68;;;3.35;;
37051;SDS011;22964;52.272;13.356;2024-01-30T00:26:12;8.10;;;3.40;;
37051;SDS011;22964;52.272;13.356;2024-01-30T00:28:40;6.25;;;3.28;;
37051;SDS011;22964;52.272;13.356;2024-01-30T00:31:06;6.25;;;3.53;;
37051;SDS011;22964;52.272;13.356;2024-01-30T00:33:31;7.43;;;3.60;;
37051;SDS011;22964;52.272;13.356;2024-01-30T00:35:57;8.48;;;3.92;;
37051;SDS011;22964;52.272;13.356;2024-01-30T00:38:23;6.15;;;3.42;;
37051;SDS011;22964;52.272;13.356;2024-01-30T00:40:49;6.95;;;3.63;;
37051;SDS011;22964;52.272;13.356;2024-01-30T00:43:15;7.57;;;3.83;;
37051;SDS011;22964;52.272;13.356;2024-01-30T00:45:41;5.65;;;3.20;;
37051;SDS011;22964;52.272;13.356;2024-01-30T00:48:08;6.35;;;3.30;;
37051;SDS011;22964;52.272;13.356;2024-01-30T00:50:34;6.38;;;3.60;;
37051;SDS011;22964;52.272;13.356;2024-01-30T00:53:00;7.03;;;3.72;;
37051;SDS011;22964;52.272;13.356;2024-01-30T00:55:26;8.82;;;3.53;;
37051;SDS011;22964;52.272;13.356;2024-01-30T00:57:51;7.13;;;3.30;;
37051;SDS011;22964;52.272;13.356;2024-01-30T01:00:17;6.80;;;3.30;;
37051;SDS011;22964;52.272;13.356;2024-01-30T01:02:43;7.60;;;3.65;;
37051;SDS011;22964;52.272;13.356;2024-01-30T01:05:09;6.32;;;3.47;;
37051;SDS011;22964;52.272;13.356;2024-01-30T01:07:35;7.35;;;3.58;;
37051;SDS011;22964;52.272;13.356;2024-01-30T01:10:01;8.07;;;3.53;;
37051;SDS011;22964;52.272;13.356;2024-01-30T01:12:27;6.25;;;3.28;;
37051;SDS011;22964;52.272;13.356;2024-01-30T01:14:53;8.43;;;3.75;;
37051;SDS011;22964;52.272;13.356;2024-01-30T01:17:19;6.63;;;3.63;;
37051;SDS011;22964;52.272;13.356;2024-01-30T01:19:44;7.18;;;4.05;;
37051;SDS011;22964;52.272;13.356;2024-01-30T01:22:10;8.25;;;3.90;;
37051;SDS011;22964;52.272;13.356;2024-01-30T01:24:36;8.30;;;3.80;;
37051;SDS011;22964;52.272;13.356;2024-01-30T01:27:02;7.28;;;3.85;;
37051;SDS011;22964;52.272;13.356;2024-01-30T01:29:28;7.20;;;3.72;;
37051;SDS011;22964;52.272;13.356;2024-01-30T01:31:57;7.50;;;3.67;;
37051;SDS011;22964;52.272;13.356;2024-01-30T01:34:23;7.95;;;3.90;;
37051;SDS011;22964;52.272;13.356;2024-01-30T01:36:49;7.40;;;3.75;;
37051;SDS011;22964;52.272;13.356;2024-01-30T01:39:15;9.00;;;4.07;;
37051;SDS011;22964;52.272;13.356;2024-01-30T01:41:41;7.35;;;3.97;;
37051;SDS011;22964;52.272;13.356;2024-01-30T01:44:08;8.20;;;4.20;;
37051;SDS011;22964;52.272;13.356;2024-01-30T01:46:34;9.38;;;4.40;;
37051;SDS011;22964;52.272;13.356;2024-01-30T01:49:00;7.22;;;4.25;;
37051;SDS011;22964;52.272;13.356;2024-01-30T01:51:27;7.57;;;4.20;;
37051;SDS011;22964;52.272;13.356;2024-01-30T01:53:54;8.15;;;3.80;;
37051;SDS011;22964;52.272;13.356;2024-01-30T01:56:22;7.40;;;3.78;;
37051;SDS011;22964;52.272;13.356;2024-01-30T01:58:48;9.70;;;4.38;;
37051;SDS011;22964;52.272;13.356;2024-01-30T02:01:16;7.20;;;4.00;;
37051;SDS011;22964;52.272;13.356;2024-01-30T02:03:45;5.93;;;3.92;;
37051;SDS011;22964;52.272;13.356;2024-01-30T02:06:12;7.65;;;4.20;;
37051;SDS011;22964;52.272;13.356;2024-01-30T02:08:41;7.05;;;3.92;;
37051;SDS011;22964;52.272;13.356;2024-01-30T02:11:07;7.38;;;4.18;;
37051;SDS011;22964;52.272;13.356;2024-01-30T02:13:35;9.05;;;4.25;;
37051;SDS011;22964;52.272;13.356;2024-01-30T02:16:01;7.00;;;4.13;;
37051;SDS011;22964;52.272;13.356;2024-01-30T02:18:26;9.20;;;4.20;;
37051;SDS011;22964;52.272;13.356;2024-01-30T02:20:53;8.35;;;4.30;;
37051;SDS011;22964;52.272;13.356;2024-01-30T02:23:21;9.32;;;4.43;;
37051;SDS011;22964;52.272;13.356;2024-01-30T02:25:49;8.75;;;4.75;;
37051;SDS011;22964;52.272;13.356;2024-01-30T02:28:18;8.30;;;4.50;;
37051;SDS011;22964;52.272;13.356;2024-01-30T02:30:44;10.10;;;4.57;;
37051;SDS011;22964;52.272;13.356;2024-01-30T02:33:11;10.90;;;4.65;;
37051;SDS011;22964;52.272;13.356;2024-01-30T02:35:37;8.27;;;4.45;;
37051;SDS011;22964;52.272;13.356;2024-01-30T02:38:03;9.35;;;5.45;;
37051;SDS011;22964;52.272;13.356;2024-01-30T02:40:29;11.00;;;5.22;;
37051;SDS011;22964;52.272;13.356;2024-01-30T02:42:55;13.15;;;4.22;;
37051;SDS011;22964;52.272;13.356;2024-01-30T02:45:21;11.05;;;4.47;;
37051;SDS011;22964;52.272;13.356;2024-01-30T02:47:47;8.13;;;4.53;;
37051;SDS011;22964;52.272;13.356;2024-01-30T02:50:13;8.55;;;4.32;;
37051;SDS011;22964;52.272;13.356;2024-01-30T02:52:40;7.45;;;4.32;;
37051;SDS011;22964;52.272;13.356;2024-01-30T02:55:06;7.35;;;4.18;;
37051;SDS011;22964;52.272;13.356;2024-01-30T02:57:32;7.95;;;4.50;;
37051;SDS011;22964;52.272;13.356;2024-01-30T02:59:58;10.32;;;4.57;;
37051;SDS011;22964;52.272;13.356;2024-01-30T03:02:23;8.95;;;4.32;;
37051;SDS011;22964;52.272;13.356;2024-01-30T03:04:49;8.23;;;4.63;;
37051;SDS011;22964;52.272;13.356;2024-01-30T03:07:15;8.90;;;4.40;;
37051;SDS011;22964;52.272;13.356;2024-01-30T03:09:41;11.20;;;4.78;;
37051;SDS011;22964;52.272;13.356;2024-01-30T03:12:10;8.35;;;4.15;;
37051;SDS011;22964;52.272;13.356;2024-01-30T03:14:36;7.75;;;4.05;;
37051;SDS011;22964;52.272;13.356;2024-01-30T03:17:01;6.65;;;4.22;;
37051;SDS011;22964;52.272;13.356;2024-01-30T03:19:27;8.68;;;4.63;;
37051;SDS011;22964;52.272;13.356;2024-01-30T03:21:53;8.52;;;4.78;;
37051;SDS011;22964;52.272;13.356;2024-01-30T03:24:19;7.93;;;4.25;;
37051;SDS011;22964;52.272;13.356;2024-01-30T03:26:44;9.63;;;5.18;;
37051;SDS011;22964;52.272;13.356;2024-01-30T03:29:10;9.52;;;5.53;;
37051;SDS011;22964;52.272;13.356;2024-01-30T03:31:36;9.90;;;5.07;;
37051;SDS011;22964;52.272;13.356;2024-01-30T03:34:02;8.35;;;4.63;;
37051;SDS011;22964;52.272;13.356;2024-01-30T03:36:27;8.60;;;4.70;;
37051;SDS011;22964;52.272;13.356;2024-01-30T03:38:53;11.23;;;4.97;;
37051;SDS011;22964;52.272;13.356;2024-01-30T03:41:19;8.18;;;4.50;;
37051;SDS011;22964;52.272;13.356;2024-01-30T03:43:45;11.00;;;5.15;;
37051;SDS011;22964;52.272;13.356;2024-01-30T03:46:11;8.93;;;4.70;;
37051;SDS011;22964;52.272;13.356;2024-01-30T03:48:38;9.07;;;4.78;;
37051;SDS011;22964;52.272;13.356;2024-01-30T03:51:04;9.02;;;4.82;;
37051;SDS011;22964;52.272;13.356;2024-01-30T03:53:30;9.30;;;4.70;;
37051;SDS011;22964;52.272;13.356;2024-01-30T03:55:56;9.13;;;4.57;;
37051;SDS011;22964;52.272;13.356;2024-01-30T03:58:21;9.25;;;4.70;;
37051;SDS011;22964;52.272;13.356;2024-01-30T04:00:47;9.73;;;5.00;;
37051;SDS011;22964;52.272;13.356;2024-01-30T04:03:16;11.68;;;4.70;;
37051;SDS011;22964;52.272;13.356;2024-01-30T04:05:41;8.90;;;4.78;;
37051;SDS011;22964;52.272;13.356;2024-01-30T04:08:07;9.63;;;4.95;;
37051;SDS011;22964;52.272;13.356;2024-01-30T04:10:33;9.27;;;4.85;;
37051;SDS011;22964;52.272;13.356;2024-01-30T04:12:59;7.20;;;4.60;;
37051;SDS011;22964;52.272;13.356;2024-01-30T04:15:25;9.73;;;5.10;;
37051;SDS011;22964;52.272;13.356;2024-01-30T04:17:51;8.98;;;4.35;;
37051;SDS011;22964;52.272;13.356;2024-01-30T04:20:17;10.10;;;4.60;;
37051;SDS011;22964;52.272;13.356;2024-01-30T04:22:46;9.32;;;4.72;;
37051;SDS011;22964;52.272;13.356;2024-01-30T04:25:12;9.73;;;5.20;;
37051;SDS011;22964;52.272;13.356;2024-01-30T04:27:39;8.38;;;4.55;;
37051;SDS011;22964;52.272;13.356;2024-01-30T04:30:04;8.48;;;4.68;;
37051;SDS011;22964;52.272;13.356;2024-01-30T04:32:31;8.13;;;4.82;;
37051;SDS011;22964;52.272;13.356;2024-01-30T04:34:57;9.40;;;5.07;;
37051;SDS011;22964;52.272;13.356;2024-01-30T04:37:23;9.70;;;4.57;;
37051;SDS011;22964;52.272;13.356;2024-01-30T04:39:50;8.90;;;5.25;;
37051;SDS011;22964;52.272;13.356;2024-01-30T04:42:16;9.48;;;4.78;;
37051;SDS011;22964;52.272;13.356;2024-01-30T04:44:42;9.25;;;4.75;;
37051;SDS011;22964;52.272;13.356;2024-01-30T04:47:07;9.73;;;5.05;;
37051;SDS011;22964;52.272;13.356;2024-01-30T04:49:35;9.65;;;4.65;;
37051;SDS011;22964;52.272;13.356;2024-01-30T04:52:00;9.48;;;4.78;;
37051;SDS011;22964;52.272;13.356;2024-01-30T04:54:26;8.05;;;4.82;;
37051;SDS011;22964;52.272;13.356;2024-01-30T04:56:52;8.52;;;4.50;;
37051;SDS011;22964;52.272;13.356;2024-01-30T04:59:18;10.82;;;4.57;;
37051;SDS011;22964;52.272;13.356;2024-01-30T05:01:43;10.05;;;4.90;;
37051;SDS011;22964;52.272;13.356;2024-01-30T05:04:09;8.32;;;4.97;;
37051;SDS011;22964;52.272;13.356;2024-01-30T05:06:36;8.98;;;4.80;;
37051;SDS011;22964;52.272;13.356;2024-01-30T05:09:02;9.38;;;4.80;;
37051;SDS011;22964;52.272;13.356;2024-01-30T05:11:29;8.82;;;4.68;;
37051;SDS011;22964;52.272;13.356;2024-01-30T05:13:55;9.25;;;4.72;;
37051;SDS011;22964;52.272;13.356;2024-01-30T05:16:21;8.13;;;4.57;;
37051;SDS011;22964;52.272;13.356;2024-01-30T05:18:47;8.05;;;4.35;;
37051;SDS011;22964;52.272;13.356;2024-01-30T05:21:13;11.18;;;4.85;;
37051;SDS011;22964;52.272;13.356;2024-01-30T05:23:38;8.88;;;4.90;;
37051;SDS011;22964;52.272;13.356;2024-01-30T05:26:07;7.68;;;4.40;;
37051;SDS011;22964;52.272;13.356;2024-01-30T05:28:33;9.38;;;4.70;;
37051;SDS011;22964;52.272;13.356;2024-01-30T05:30:59;7.82;;;4.68;;
37051;SDS011;22964;52.272;13.356;2024-01-30T05:33:24;8.75;;;4.78;;
37051;SDS011;22964;52.272;13.356;2024-01-30T05:35:50;7.93;;;4.35;;
37051;SDS011;22964;52.272;13.356;2024-01-30T05:38:19;7.82;;;4.20;;
37051;SDS011;22964;52.272;13.356;2024-01-30T05:40:45;7.93;;;4.65;;
37051;SDS011;22964;52.272;13.356;2024-01-30T05:43:11;8.20;;;4.40;;
37051;SDS011;22964;52.272;13.356;2024-01-30T05:45:37;8.50;;;4.40;;
37051;SDS011;22964;52.272;13.356;2024-01-30T05:48:03;8.43;;;4.80;;
37051;SDS011;22964;52.272;13.356;2024-01-30T05:50:29;9.15;;;4.75;;
37051;SDS011;22964;52.272;13.356;2024-01-30T05:52:55;8.60;;;4.65;;
37051;SDS011;22964;52.272;13.356;2024-01-30T05:55:21;8.90;;;4.28;;
37051;SDS011;22964;52.272;13.356;2024-01-30T05:57:47;12.38;;;5.10;;
37051;SDS011;22964;52.272;13.356;2024-01-30T06:00:13;8.77;;;4.95;;
37051;SDS011;22964;52.272;13.356;2024-01-30T06:02:39;9.00;;;4.60;;
37051;SDS011;22964;52.272;13.356;2024-01-30T06:05:05;10.02;;;4.90;;
37051;SDS011;22964;52.272;13.356;2024-01-30T06:07:31;9.75;;;4.80;;
37051;SDS011;22964;52.272;13.356;2024-01-30T06:09:57;9.80;;;5.22;;
37051;SDS011;22964;52.272;13.356;2024-01-30T06:12:22;10.07;;;4.93;;
37051;SDS011;22964;52.272;13.356;2024-01-30T06:14:48;10.18;;;4.80;;
37051;SDS011;22964;52.272;13.356;2024-01-30T06:17:14;8.95;;;4.95;;
37051;SDS011;22964;52.272;13.356;2024-01-30T06:19:40;9.40;;;4.68;;
37051;SDS011;22964;52.272;13.356;2024-01-30T06:22:06;9.82;;;5.15;;
37051;SDS011;22964;52.272;13.356;2024-01-30T06:24:31;10.15;;;4.85;;
37051;SDS011;22964;52.272;13.356;2024-01-30T06:26:58;10.02;;;5.22;;
37051;SDS011;22964;52.272;13.356;2024-01-30T06:29:24;10.52;;;4.90;;
37051;SDS011;22964;52.272;13.356;2024-01-30T06:31:51;8.48;;;4.80;;
37051;SDS011;22964;52.272;13.356;2024-01-30T06:34:17;10.27;;;4.90;;
37051;SDS011;22964;52.272;13.356;2024-01-30T06:36:44;10.10;;;5.07;;
37051;SDS011;22964;52.272;13.356;2024-01-30T06:39:09;8.65;;;4.80;;
37051;SDS011;22964;52.272;13.356;2024-01-30T06:41:35;8.98;;;4.68;;
37051;SDS011;22964;52.272;13.356;2024-01-30T06:44:04;11.68;;;5.07;;
37051;SDS011;22964;52.272;13.356;2024-01-30T06:46:31;10.50;;;5.20;;
37051;SDS011;22964;52.272;13.356;2024-01-30T06:48:57;10.25;;;5.00;;
37051;SDS011;22964;52.272;13.356;2024-01-30T06:51:23;9.68;;;5.00;;
37051;SDS011;22964;52.272;13.356;2024-01-30T06:53:49;10.95;;;5.53;;
37051;SDS011;22964;52.272;13.356;2024-01-30T06:56:15;9.60;;;5.03;;
37051;SDS011;22964;52.272;13.356;2024-01-30T06:58:46;10.20;;;5.47;;
37051;SDS011;22964;52.272;13.356;2024-01-30T07:01:15;9.20;;;5.30;;
37051;SDS011;22964;52.272;13.356;2024-01-30T07:03:41;9.68;;;5.68;;
37051;SDS011;22964;52.272;13.356;2024-01-30T07:06:08;10.70;;;5.60;;
37051;SDS011;22964;52.272;13.356;2024-01-30T07:08:34;10.10;;;5.75;;
37051;SDS011;22964;52.272;13.356;2024-01-30T07:10:59;10.77;;;5.50;;
37051;SDS011;22964;52.272;13.356;2024-01-30T07:13:26;10.65;;;5.70;;
37051;SDS011;22964;52.272;13.356;2024-01-30T07:15:53;9.05;;;5.10;;
37051;SDS011;22964;52.272;13.356;2024-01-30T07:18:19;10.43;;;5.07;;
37051;SDS011;22964;52.272;13.356;2024-01-30T07:20:45;11.23;;;5.65;;
37051;SDS011;22964;52.272;13.356;2024-01-30T07:23:12;11.55;;;5.82;;
37051;SDS011;22964;52.272;13.356;2024-01-30T07:25:41;11.50;;;5.95;;
37051;SDS011;22964;52.272;13.356;2024-01-30T07:28:07;11.63;;;5.22;;
37051;SDS011;22964;52.272;13.356;2024-01-30T07:30:37;9.68;;;5.60;;
37051;SDS011;22964;52.272;13.356;2024-01-30T07:33:03;9.35;;;4.88;;
37051;SDS011;22964;52.272;13.356;2024-01-30T07:35:30;10.48;;;5.35;;
37051;SDS011;22964;52.272;13.356;2024-01-30T07:37:55;10.25;;;5.32;;
37051;SDS011;22964;52.272;13.356;2024-01-30T07:40:22;8.70;;;5.15;;
37051;SDS011;22964;52.272;13.356;2024-01-30T07:42:48;10.70;;;5.20;;
37051;SDS011;22964;52.272;13.356;2024-01-30T07:45:14;9.82;;;4.82;;
37051;SDS011;22964;52.272;13.356;2024-01-30T07:47:40;9.05;;;5.18;;
37051;SDS011;22964;52.272;13.356;2024-01-30T07:50:07;9.05;;;5.03;;
37051;SDS011;22964;52.272;13.356;2024-01-30T07:52:34;9.68;;;4.93;;
37051;SDS011;22964;52.272;13.356;2024-01-30T07:55:00;9.23;;;4.90;;
37051;SDS011;22964;52.272;13.356;2024-01-30T07:57:25;10.88;;;5.18;;
37051;SDS011;22964;52.272;13.356;2024-01-30T07:59:51;9.10;;;4.70;;
37051;SDS011;22964;52.272;13.356;2024-01-30T08:02:18;9.40;;;4.90;;
37051;SDS011;22964;52.272;13.356;2024-01-30T08:04:44;12.40;;;5.10;;
37051;SDS011;22964;52.272;13.356;2024-01-30T08:07:13;11.10;;;4.82;;
37051;SDS011;22964;52.272;13.356;2024-01-30T08:09:39;9.85;;;4.32;;
37051;SDS011;22964;52.272;13.356;2024-01-30T08:12:05;9.45;;;4.65;;
37051;SDS011;22964;52.272;13.356;2024-01-30T08:14:31;8.35;;;4.40;;
37051;SDS011;22964;52.272;13.356;2024-01-30T08:16:57;7.88;;;4.65;;
37051;SDS011;22964;52.272;13.356;2024-01-30T08:19:22;9.35;;;4.72;;
37051;SDS011;22964;52.272;13.356;2024-01-30T08:21:48;8.35;;;4.75;;
37051;SDS011;22964;52.272;13.356;2024-01-30T08:24:14;9.23;;;4.97;;
37051;SDS011;22964;52.272;13.356;2024-01-30T08:26:40;9.15;;;5.22;;
37051;SDS011;22964;52.272;13.356;2024-01-30T08:29:05;8.88;;;5.25;;
37051;SDS011;22964;52.272;13.356;2024-01-30T08:31:31;11.00;;;5.50;;
37051;SDS011;22964;52.272;13.356;2024-01-30T08:33:57;9.98;;;5.28;;
37051;SDS011;22964;52.272;13.356;2024-01-30T08:36:22;9.48;;;5.13;;
37051;SDS011;22964;52.272;13.356;2024-01-30T08:38:48;8.43;;;4.70;;
37051;SDS011;22964;52.272;13.356;2024-01-30T08:41:14;9.30;;;4.82;;
37051;SDS011;22964;52.272;13.356;2024-01-30T08:43:40;7.68;;;4.40;;
37051;SDS011;22964;52.272;13.356;2024-01-30T08:46:06;8.73;;;4.40;;
37051;SDS011;22964;52.272;13.356;2024-01-30T08:48:31;8.40;;;4.60;;
37051;SDS011;22964;52.272;13.356;2024-01-30T08:50:57;7.85;;;4.40;;
37051;SDS011;22964;52.272;13.356;2024-01-30T08:53:23;8.18;;;4.72;;
37051;SDS011;22964;52.272;13.356;2024-01-30T08:55:49;10.23;;;4.93;;
37051;SDS011;22964;52.272;13.356;2024-01-30T08:58:15;6.75;;;4.20;;
37051;SDS011;22964;52.272;13.356;2024-01-30T09:00:43;6.95;;;4.07;;
37051;SDS011;22964;52.272;13.356;2024-01-30T09:03:09;8.02;;;4.43;;
37051;SDS011;22964;52.272;13.356;2024-01-30T09:05:34;8.43;;;4.50;;
37051;SDS011;22964;52.272;13.356;2024-01-30T09:08:00;7.78;;;4.10;;
37051;SDS011;22964;52.272;13.356;2024-01-30T09:10:26;7.82;;;4.07;;
37051;SDS011;22964;52.272;13.356;2024-01-30T09:12:51;6.75;;;4.30;;
37051;SDS011;22964;52.272;13.356;2024-01-30T09:15:17;8.52;;;4.35;;
37051;SDS011;22964;52.272;13.356;2024-01-30T09:17:44;7.70;;;4.43;;
37051;SDS011;22964;52.272;13.356;2024-01-30T09:20:10;7.22;;;4.35;;
37051;SDS011;22964;52.272;13.356;2024-01-30T09:22:36;8.02;;;4.38;;
37051;SDS011;22964;52.272;13.356;2024-01-30T09:25:02;8.68;;;4.20;;
37051;SDS011;22964;52.272;13.356;2024-01-30T09:27:28;8.27;;;4.25;;
37051;SDS011;22964;52.272;13.356;2024-01-30T09:29:53;9.13;;;4.40;;
37051;SDS011;22964;52.272;13.356;2024-01-30T09:32:19;7.40;;;4.43;;
37051;SDS011;22964;52.272;13.356;2024-01-30T09:34:45;7.35;;;4.00;;
37051;SDS011;22964;52.272;13.356;2024-01-30T09:37:11;8.85;;;4.10;;
37051;SDS011;22964;52.272;13.356;2024-01-30T09:39:36;8.10;;;4.63;;
37051;SDS011;22964;52.272;13.356;2024-01-30T09:42:05;8.27;;;4.60;;
37051;SDS011;22964;52.272;13.356;2024-01-30T09:44:37;9.07;;;4.65;;
37051;SDS011;22964;52.272;13.356;2024-01-30T09:47:03;7.03;;;4.32;;
37051;SDS011;22964;52.272;13.356;2024-01-30T09:49:31;8.13;;;4.50;;
37051;SDS011;22964;52.272;13.356;2024-01-30T09:51:58;8.38;;;4.30;;
37051;SDS011;22964;52.272;13.356;2024-01-30T09:54:24;8.88;;;4.20;;
37051;SDS011;22964;52.272;13.356;2024-01-30T09:56:49;8.68;;;4.20;;
37051;SDS011;22964;52.272;13.356;2024-01-30T09:59:15;8.82;;;4.38;;
37051;SDS011;22964;52.272;13.356;2024-01-30T10:01:41;7.97;;;4.07;;
37051;SDS011;22964;52.272;13.356;2024-01-30T10:04:08;6.72;;;3.80;;
37051;SDS011;22964;52.272;13.356;2024-01-30T10:06:34;8.40;;;4.05;;
37051;SDS011;22964;52.272;13.356;2024-01-30T10:09:00;9.35;;;4.05;;
37051;SDS011;22964;52.272;13.356;2024-01-30T10:11:25;8.13;;;3.90;;
37051;SDS011;22964;52.272;13.356;2024-01-30T10:13:52;7.63;;;4.40;;
37051;SDS011;22964;52.272;13.356;2024-01-30T10:16:17;7.22;;;3.78;;
37051;SDS011;22964;52.272;13.356;2024-01-30T10:18:43;8.05;;;4.10;;
37051;SDS011;22964;52.272;13.356;2024-01-30T10:21:09;8.30;;;3.97;;
37051;SDS011;22964;52.272;13.356;2024-01-30T10:23:35;7.35;;;3.75;;
37051;SDS011;22964;52.272;13.356;2024-01-30T10:26:04;6.22;;;3.63;;
37051;SDS011;22964;52.272;13.356;2024-01-30T10:28:33;7.68;;;3.65;;
37051;SDS011;22964;52.272;13.356;2024-01-30T10:30:59;7.18;;;3.70;;
37051;SDS011;22964;52.272;13.356;2024-01-30T10:33:26;7.30;;;3.83;;
37051;SDS011;22964;52.272;13.356;2024-01-30T10:35:54;8.82;;;4.00;;
37051;SDS011;22964;52.272;13.356;2024-01-30T10:38:31;7.40;;;3.75;;
37051;SDS011;22964;52.272;13.356;2024-01-30T10:40:57;7.53;;;3.95;;
37051;SDS011;22964;52.272;13.356;2024-01-30T10:43:26;6.95;;;3.70;;
37051;SDS011;22964;52.272;13.356;2024-01-30T10:46:01;5.78;;;3.70;;
37051;SDS011;22964;52.272;13.356;2024-01-30T10:48:57;6.28;;;3.58;;
37051;SDS011;22964;52.272;13.356;2024-01-30T10:51:27;7.18;;;4.22;;
37051;SDS011;22964;52.272;13.356;2024-01-30T10:53:53;6.93;;;3.92;;
37051;SDS011;22964;52.272;13.356;2024-01-30T10:56:21;9.75;;;4.53;;
37051;SDS011;22964;52.272;13.356;2024-01-30T10:58:49;9.13;;;4.53;;
37051;SDS011;22964;52.272;13.356;2024-01-30T11:01:17;7.68;;;4.53;;
37051;SDS011;22964;52.272;13.356;2024-01-30T11:03:51;7.80;;;4.43;;
37051;SDS011;22964;52.272;13.356;2024-01-30T11:06:17;9.32;;;4.80;;
37051;SDS011;22964;52.272;13.356;2024-01-30T11:08:44;9.00;;;4.63;;
37051;SDS011;22964;52.272;13.356;2024-01-30T11:11:10;9.88;;;5.20;;
37051;SDS011;22964;52.272;13.356;2024-01-30T11:13:36;9.30;;;4.57;;
37051;SDS011;22964;52.272;13.356;2024-01-30T11:16:02;8.68;;;4.90;;
37051;SDS011;22964;52.272;13.356;2024-01-30T11:18:32;7.63;;;3.92;;
37051;SDS011;22964;52.272;13.356;2024-01-30T11:20:58;7.82;;;4.82;;
37051;SDS011;22964;52.272;13.356;2024-01-30T11:23:30;8.90;;;4.80;;
37051;SDS011;22964;52.272;13.356;2024-01-30T11:25:56;8.23;;;4.75;;
37051;SDS011;22964;52.272;13.356;2024-01-30T11:28:22;7.82;;;4.80;;
37051;SDS011;22964;52.272;13.356;2024-01-30T11:30:49;7.32;;;4.50;;
37051;SDS011;22964;52.272;13.356;2024-01-30T11:33:26;11.10;;;5.28;;
37051;SDS011;22964;52.272;13.356;2024-01-30T11:35:53;7.82;;;4.60;;
37051;SDS011;22964;52.272;13.356;2024-01-30T11:38:20;7.80;;;4.57;;
37051;SDS011;22964;52.272;13.356;2024-01-30T11:40:46;9.43;;;5.10;;
37051;SDS011;22964;52.272;13.356;2024-01-30T11:43:13;8.07;;;4.60;;
37051;SDS011;22964;52.272;13.356;2024-01-30T11:45:40;11.10;;;5.20;;
37051;SDS011;22964;52.272;13.356;2024-01-30T11:48:06;10.55;;;5.13;;
37051;SDS011;22964;52.272;13.356;2024-01-30T11:50:33;9.35;;;4.75;;
37051;SDS011;22964;52.272;13.356;2024-01-30T11:52:59;8.57;;;4.63;;
37051;SDS011;22964;52.272;13.356;2024-01-30T11:55:25;9.32;;;4.57;;
37051;SDS011;22964;52.272;13.356;2024-01-30T11:57:54;8.73;;;4.75;;
37051;SDS011;22964;52.272;13.356;2024-01-30T12:00:20;7.88;;;4.55;;
37051;SDS011;22964;52.272;13.356;2024-01-30T12:02:49;10.13;;;4.65;;
37051;SDS011;22964;52.272;13.356;2024-01-30T12:05:18;10.02;;;4.35;;
37051;SDS011;22964;52.272;13.356;2024-01-30T12:07:45;6.93;;;4.47;;
37051;SDS011;22964;52.272;13.356;2024-01-30T12:10:12;9.20;;;4.63;;
37051;SDS011;22964;52.272;13.356;2024-01-30T12:12:39;6.90;;;4.35;;
37051;SDS011;22964;52.272;13.356;2024-01-30T12:15:06;10.52;;;4.78;;
37051;SDS011;22964;52.272;13.356;2024-01-30T12:17:33;8.40;;;4.32;;
37051;SDS011;22964;52.272;13.356;2024-01-30T12:20:05;8.15;;;4.70;;
37051;SDS011;22964;52.272;13.356;2024-01-30T12:22:38;10.60;;;4.70;;
37051;SDS011;22964;52.272;13.356;2024-01-30T12:25:12;7.10;;;4.10;;
37051;SDS011;22964;52.272;13.356;2024-01-30T12:27:39;8.18;;;4.25;;
37051;SDS011;22964;52.272;13.356;2024-01-30T12:30:10;6.50;;;4.05;;
37051;SDS011;22964;52.272;13.356;2024-01-30T12:32:41;7.87;;;4.33;;
37051;SDS011;22964;52.272;13.356;2024-01-30T12:35:12;7.35;;;4.10;;
37051;SDS011;22964;52.272;13.356;2024-01-30T12:37:38;7.32;;;4.10;;
37051;SDS011;22964;52.272;13.356;2024-01-30T12:40:05;8.43;;;4.30;;
37051;SDS011;22964;52.272;13.356;2024-01-30T12:42:35;9.45;;;4.72;;
37051;SDS011;22964;52.272;13.356;2024-01-30T12:45:04;7.18;;;4.15;;
37051;SDS011;22964;52.272;13.356;2024-01-30T12:47:30;7.78;;;4.03;;
37051;SDS011;22964;52.272;13.356;2024-01-30T12:49:57;6.63;;;4.10;;
37051;SDS011;22964;52.272;13.356;2024-01-30T12:52:23;9.25;;;4.53;;
37051;SDS011;22964;52.272;13.356;2024-01-30T12:54:49;6.90;;;4.20;;
37051;SDS011;22964;52.272;13.356;2024-01-30T12:57:15;7.55;;;4.38;;
37051;SDS011;22964;52.272;13.356;2024-01-30T12:59:42;7.20;;;4.30;;
37051;SDS011;22964;52.272;13.356;2024-01-30T13:02:08;7.53;;;4.47;;
37051;SDS011;22964;52.272;13.356;2024-01-30T13:04:34;6.63;;;4.20;;
37051;SDS011;22964;52.272;13.356;2024-01-30T13:07:00;7.15;;;4.18;;
37051;SDS011;22964;52.272;13.356;2024-01-30T13:09:26;7.80;;;4.32;;
37051;SDS011;22964;52.272;13.356;2024-01-30T13:11:52;10.30;;;4.38;;
37051;SDS011;22964;52.272;13.356;2024-01-30T13:14:18;7.90;;;4.78;;
37051;SDS011;22964;52.272;13.356;2024-01-30T13:16:44;7.68;;;4.10;;
37051;SDS011;22964;52.272;13.356;2024-01-30T13:19:10;7.38;;;4.28;;
37051;SDS011;22964;52.272;13.356;2024-01-30T13:21:36;9.30;;;4.68;;
37051;SDS011;22964;52.272;13.356;2024-01-30T13:24:02;8.50;;;4.38;;
37051;SDS011;22964;52.272;13.356;2024-01-30T13:26:29;8.13;;;4.38;;
37051;SDS011;22964;52.272;13.356;2024-01-30T13:28:56;8.93;;;4.38;;
37051;SDS011;22964;52.272;13.356;2024-01-30T13:31:22;8.40;;;3.85;;
37051;SDS011;22964;52.272;13.356;2024-01-30T13:33:47;7.30;;;4.00;;
37051;SDS011;22964;52.272;13.356;2024-01-30T13:36:14;7.15;;;4.15;;
37051;SDS011;22964;52.272;13.356;2024-01-30T13:38:40;8.20;;;4.35;;
37051;SDS011;22964;52.272;13.356;2024-01-30T13:41:06;7.40;;;4.13;;
37051;SDS011;22964;52.272;13.356;2024-01-30T13:43:32;5.88;;;3.75;;
37051;SDS011;22964;52.272;13.356;2024-01-30T13:45:58;7.90;;;4.20;;
37051;SDS011;22964;52.272;13.356;2024-01-30T13:48:24;7.72;;;4.57;;
37051;SDS011;22964;52.272;13.356;2024-01-30T13:50:50;7.57;;;3.95;;
37051;SDS011;22964;52.272;13.356;2024-01-30T13:53:15;6.65;;;4.05;;
37051;SDS011;22964;52.272;13.356;2024-01-30T13:55:41;6.65;;;4.05;;
37051;SDS011;22964;52.272;13.356;2024-01-30T13:58:07;6.20;;;3.95;;
37051;SDS011;22964;52.272;13.356;2024-01-30T14:00:33;7.25;;;4.45;;
37051;SDS011;22964;52.272;13.356;2024-01-30T14:02:59;8.43;;;4.47;;
37051;SDS011;22964;52.272;13.356;2024-01-30T14:05:25;8.90;;;4.22;;
37051;SDS011;22964;52.272;13.356;2024-01-30T14:07:53;7.43;;;4.28;;
37051;SDS011;22964;52.272;13.356;2024-01-30T14:10:19;6.57;;;4.18;;
37051;SDS011;22964;52.272;13.356;2024-01-30T14:12:45;8.73;;;4.20;;
37051;SDS011;22964;52.272;13.356;2024-01-30T14:15:13;8.45;;;4.35;;
37051;SDS011;22964;52.272;13.356;2024-01-30T14:17:46;6.93;;;4.15;;
37051;SDS011;22964;52.272;13.356;2024-01-30T14:20:13;7.30;;;4.50;;
37051;SDS011;22964;52.272;13.356;2024-01-30T14:22:41;7.40;;;4.50;;
37051;SDS011;22964;52.272;13.356;2024-01-30T14:25:07;7.43;;;4.30;;
37051;SDS011;22964;52.272;13.356;2024-01-30T14:27:34;8.15;;;4.20;;
37051;SDS011;22964;52.272;13.356;2024-01-30T14:30:00;10.25;;;4.57;;